KPMD/PMD METAR and TAF weather

Enter ICAO airport designator
Station Type Date Time Source
KPMD METAR 2020/03/28 08:53 UTC NOAA

KPMD 280853Z AUTO 22008KT 10SM CLR 06/M03 A3014 RMK AO2 SLP202 T00561033 58002


Station Type Date Time Source
KPMD Decoded METAR 2020/03/28 08:53 UTC NOAA

PALMDALE PROD FLIGHT PLANT, CA, United States (KPMD) 34-38N 118-05W 780M
Mar 28, 2020 - 04:53 AM EDT / 2020.03.28 0853 UTC
Wind: from the SW (220 degrees) at 9 MPH (8 KT):0
Visibility: 10 mile(s):0
Sky conditions: clear
Temperature: 42.1 F (5.6 C)
Dew Point: 26.1 F (-3.3 C)
Relative Humidity: 52%
Pressure (altimeter): 30.14 in. Hg (1020 hPa)
Pressure tendency: 0.01 inches (0.2 hPa) lower than three hours ago
ob: KPMD 280853Z AUTO 22008KT 10SM CLR 06/M03 A3014 RMK AO2 SLP202 T00561033 58002
cycle: 9

Station Type Date Time Source
KPMD TAF 2020/03/28 06:27 UTC NOAA

TAF KPMD 280524Z 2806/2906 22006KT P6SM SCT250
FM281000 VRB05KT P6SM SCT250
FM282100 23010KT P6SM BKN250
FM290100 25015KT P6SM BKN100

Example: see airport list